sensor_id;sensor_type;location;lat;lon;timestamp;temperature;humidity
13684;DHT22;6914;53.552;9.908;2023-04-03T00:00:37;1.10;99.90
13684;DHT22;6914;53.552;9.908;2023-04-03T00:03:05;1.10;99.90
13684;DHT22;6914;53.552;9.908;2023-04-03T00:05:35;1.10;99.90
13684;DHT22;6914;53.552;9.908;2023-04-03T00:08:03;1.00;99.90
13684;DHT22;6914;53.552;9.908;2023-04-03T00:10:43;1.00;99.90
13684;DHT22;6914;53.552;9.908;2023-04-03T00:13:13;1.00;99.90
13684;DHT22;6914;53.552;9.908;2023-04-03T00:15:47;1.00;99.90
13684;DHT22;6914;53.552;9.908;2023-04-03T00:18:14;0.80;99.90
13684;DHT22;6914;53.552;9.908;2023-04-03T00:20:43;0.80;99.90
13684;DHT22;6914;53.552;9.908;2023-04-03T00:23:11;0.90;99.90
13684;DHT22;6914;53.552;9.908;2023-04-03T00:25:38;0.90;99.90
13684;DHT22;6914;53.552;9.908;2023-04-03T00:28:05;0.90;99.90
13684;DHT22;6914;53.552;9.908;2023-04-03T00:30:35;0.80;99.90
13684;DHT22;6914;53.552;9.908;2023-04-03T00:33:02;1.00;99.90
13684;DHT22;6914;53.552;9.908;2023-04-03T00:35:31;1.10;99.90
13684;DHT22;6914;53.552;9.908;2023-04-03T00:38:03;1.00;99.90
13684;DHT22;6914;53.552;9.908;2023-04-03T00:40:39;0.80;99.90
13684;DHT22;6914;53.552;9.908;2023-04-03T00:43:13;0.70;99.90
13684;DHT22;6914;53.552;9.908;2023-04-03T00:45:44;0.70;99.90
13684;DHT22;6914;53.552;9.908;2023-04-03T00:48:17;0.80;99.90
13684;DHT22;6914;53.552;9.908;2023-04-03T00:50:45;1.10;99.90
13684;DHT22;6914;53.552;9.908;2023-04-03T00:53:17;0.70;99.90
13684;DHT22;6914;53.552;9.908;2023-04-03T00:55:47;0.80;99.90
13684;DHT22;6914;53.552;9.908;2023-04-03T00:58:15;0.60;99.90
13684;DHT22;6914;53.552;9.908;2023-04-03T01:00:48;0.50;99.90
13684;DHT22;6914;53.552;9.908;2023-04-03T01:03:17;0.60;99.90
13684;DHT22;6914;53.552;9.908;2023-04-03T01:05:44;-0.80;99.90
13684;DHT22;6914;53.552;9.908;2023-04-03T01:08:13;0.60;99.90
13684;DHT22;6914;53.552;9.908;2023-04-03T01:10:40;0.40;99.90
13684;DHT22;6914;53.552;9.908;2023-04-03T01:13:19;0.30;99.90
13684;DHT22;6914;53.552;9.908;2023-04-03T01:15:46;0.40;99.90
13684;DHT22;6914;53.552;9.908;2023-04-03T01:18:13;0.70;99.90
13684;DHT22;6914;53.552;9.908;2023-04-03T01:23:47;0.30;99.90
13684;DHT22;6914;53.552;9.908;2023-04-03T01:26:18;0.30;99.90
13684;DHT22;6914;53.552;9.908;2023-04-03T01:28:46;0.50;99.90
13684;DHT22;6914;53.552;9.908;2023-04-03T01:31:20;0.40;99.90
13684;DHT22;6914;53.552;9.908;2023-04-03T01:33:50;0.40;99.90
13684;DHT22;6914;53.552;9.908;2023-04-03T01:36:25;0.50;99.90
13684;DHT22;6914;53.552;9.908;2023-04-03T01:38:53;0.60;99.90
13684;DHT22;6914;53.552;9.908;2023-04-03T01:41:21;0.60;99.90
13684;DHT22;6914;53.552;9.908;2023-04-03T01:43:48;0.80;99.90
13684;DHT22;6914;53.552;9.908;2023-04-03T01:46:15;0.60;99.90
13684;DHT22;6914;53.552;9.908;2023-04-03T01:48:42;0.60;99.90
13684;DHT22;6914;53.552;9.908;2023-04-03T01:51:11;0.80;99.90
13684;DHT22;6914;53.552;9.908;2023-04-03T01:53:38;0.70;99.90
13684;DHT22;6914;53.552;9.908;2023-04-03T01:56:06;0.60;99.90
13684;DHT22;6914;53.552;9.908;2023-04-03T01:58:33;0.80;99.90
13684;DHT22;6914;53.552;9.908;2023-04-03T02:01:03;0.40;99.90
13684;DHT22;6914;53.552;9.908;2023-04-03T02:03:30;0.20;99.90
13684;DHT22;6914;53.552;9.908;2023-04-03T02:06:00;0.20;99.90
13684;DHT22;6914;53.552;9.908;2023-04-03T02:08:32;0.30;99.90
13684;DHT22;6914;53.552;9.908;2023-04-03T02:11:02;0.90;99.90
13684;DHT22;6914;53.552;9.908;2023-04-03T02:13:29;0.20;99.90
13684;DHT22;6914;53.552;9.908;2023-04-03T02:15:57;0.30;99.90
13684;DHT22;6914;53.552;9.908;2023-04-03T02:18:24;1.80;99.90
13684;DHT22;6914;53.552;9.908;2023-04-03T02:20:51;0.00;99.90
13684;DHT22;6914;53.552;9.908;2023-04-03T02:23:18;0.00;99.90
13684;DHT22;6914;53.552;9.908;2023-04-03T02:25:47;0.00;99.90
13684;DHT22;6914;53.552;9.908;2023-04-03T02:28:16;-0.20;99.90
13684;DHT22;6914;53.552;9.908;2023-04-03T02:30:43;0.20;99.90
13684;DHT22;6914;53.552;9.908;2023-04-03T02:33:10;-0.10;99.90
13684;DHT22;6914;53.552;9.908;2023-04-03T02:35:40;-0.60;99.90
13684;DHT22;6914;53.552;9.908;2023-04-03T02:38:07;-0.40;99.90
13684;DHT22;6914;53.552;9.908;2023-04-03T02:40:36;-0.30;99.90
13684;DHT22;6914;53.552;9.908;2023-04-03T02:43:04;-0.30;99.90
13684;DHT22;6914;53.552;9.908;2023-04-03T02:45:33;-0.20;99.90
13684;DHT22;6914;53.552;9.908;2023-04-03T02:48:04;-0.50;99.90
13684;DHT22;6914;53.552;9.908;2023-04-03T02:50:36;-0.20;99.90
13684;DHT22;6914;53.552;9.908;2023-04-03T02:53:03;-0.50;99.90
13684;DHT22;6914;53.552;9.908;2023-04-03T02:55:31;-0.50;99.90
13684;DHT22;6914;53.552;9.908;2023-04-03T02:58:02;-0.60;99.90
13684;DHT22;6914;53.552;9.908;2023-04-03T03:00:32;-0.20;99.90
13684;DHT22;6914;53.552;9.908;2023-04-03T03:02:59;-0.70;99.90
13684;DHT22;6914;53.552;9.908;2023-04-03T03:05:29;-0.60;99.90
13684;DHT22;6914;53.552;9.908;2023-04-03T03:07:57;-0.30;99.90
13684;DHT22;6914;53.552;9.908;2023-04-03T03:10:24;-0.50;99.90
13684;DHT22;6914;53.552;9.908;2023-04-03T03:12:51;-0.60;99.90
13684;DHT22;6914;53.552;9.908;2023-04-03T03:15:17;-0.60;99.90
13684;DHT22;6914;53.552;9.908;2023-04-03T03:17:46;-0.70;99.90
13684;DHT22;6914;53.552;9.908;2023-04-03T03:20:13;-0.70;99.90
13684;DHT22;6914;53.552;9.908;2023-04-03T03:22:41;-0.80;99.90
13684;DHT22;6914;53.552;9.908;2023-04-03T03:25:08;-1.00;99.90
13684;DHT22;6914;53.552;9.908;2023-04-03T03:27:38;-0.60;99.90
13684;DHT22;6914;53.552;9.908;2023-04-03T03:30:07;-0.70;99.90
13684;DHT22;6914;53.552;9.908;2023-04-03T03:32:34;-0.80;99.90
13684;DHT22;6914;53.552;9.908;2023-04-03T03:35:02;-1.30;99.90
13684;DHT22;6914;53.552;9.908;2023-04-03T03:37:30;-0.70;99.90
13684;DHT22;6914;53.552;9.908;2023-04-03T03:39:57;-0.80;99.90
13684;DHT22;6914;53.552;9.908;2023-04-03T03:42:24;-0.70;99.90
13684;DHT22;6914;53.552;9.908;2023-04-03T03:44:52;-0.80;99.90
13684;DHT22;6914;53.552;9.908;2023-04-03T03:47:21;-0.80;99.90
13684;DHT22;6914;53.552;9.908;2023-04-03T03:49:48;-0.90;99.90
13684;DHT22;6914;53.552;9.908;2023-04-03T03:52:16;-0.80;99.90
13684;DHT22;6914;53.552;9.908;2023-04-03T03:54:44;-0.80;99.90
13684;DHT22;6914;53.552;9.908;2023-04-03T03:57:11;-1.00;99.90
13684;DHT22;6914;53.552;9.908;2023-04-03T03:59:41;-1.10;99.90
13684;DHT22;6914;53.552;9.908;2023-04-03T04:02:09;-1.00;99.90
13684;DHT22;6914;53.552;9.908;2023-04-03T04:04:38;-1.10;99.90
13684;DHT22;6914;53.552;9.908;2023-04-03T04:07:05;-1.00;99.90
13684;DHT22;6914;53.552;9.908;2023-04-03T04:09:33;-1.10;99.90
13684;DHT22;6914;53.552;9.908;2023-04-03T04:12:01;-1.00;99.90
13684;DHT22;6914;53.552;9.908;2023-04-03T04:14:29;-1.50;99.90
13684;DHT22;6914;53.552;9.908;2023-04-03T04:16:57;-0.50;99.90
13684;DHT22;6914;53.552;9.908;2023-04-03T04:19:30;-0.90;99.90
13684;DHT22;6914;53.552;9.908;2023-04-03T04:21:58;-0.90;99.90
13684;DHT22;6914;53.552;9.908;2023-04-03T04:24:25;-1.90;99.90
13684;DHT22;6914;53.552;9.908;2023-04-03T04:26:53;-1.00;99.90
13684;DHT22;6914;53.552;9.908;2023-04-03T04:29:21;-1.20;99.90
13684;DHT22;6914;53.552;9.908;2023-04-03T04:31:48;-1.00;99.90
13684;DHT22;6914;53.552;9.908;2023-04-03T04:34:15;-1.00;99.90
13684;DHT22;6914;53.552;9.908;2023-04-03T04:36:43;-1.30;99.90
13684;DHT22;6914;53.552;9.908;2023-04-03T04:39:10;-1.10;99.90
13684;DHT22;6914;53.552;9.908;2023-04-03T04:42:04;-1.10;99.90
13684;DHT22;6914;53.552;9.908;2023-04-03T04:44:39;-1.00;99.90
13684;DHT22;6914;53.552;9.908;2023-04-03T04:47:06;-0.90;99.90
13684;DHT22;6914;53.552;9.908;2023-04-03T04:49:33;-1.10;99.90
13684;DHT22;6914;53.552;9.908;2023-04-03T04:52:00;-1.10;99.90
13684;DHT22;6914;53.552;9.908;2023-04-03T04:54:36;-1.00;99.90
13684;DHT22;6914;53.552;9.908;2023-04-03T04:57:07;-0.80;99.90
13684;DHT22;6914;53.552;9.908;2023-04-03T04:59:41;-1.00;99.90
13684;DHT22;6914;53.552;9.908;2023-04-03T05:02:08;-2.30;99.90
13684;DHT22;6914;53.552;9.908;2023-04-03T05:04:35;-0.80;99.90
13684;DHT22;6914;53.552;9.908;2023-04-03T05:07:04;-1.00;99.90
13684;DHT22;6914;53.552;9.908;2023-04-03T05:09:31;-1.00;99.90
13684;DHT22;6914;53.552;9.908;2023-04-03T05:11:58;-1.10;99.90
13684;DHT22;6914;53.552;9.908;2023-04-03T05:14:26;-1.00;99.90
13684;DHT22;6914;53.552;9.908;2023-04-03T05:16:53;-0.90;99.90
13684;DHT22;6914;53.552;9.908;2023-04-03T05:19:20;-1.20;99.90
13684;DHT22;6914;53.552;9.908;2023-04-03T05:21:47;-1.00;99.90
13684;DHT22;6914;53.552;9.908;2023-04-03T05:24:16;-0.80;99.90
13684;DHT22;6914;53.552;9.908;2023-04-03T05:26:43;-1.00;99.90
13684;DHT22;6914;53.552;9.908;2023-04-03T05:29:10;-1.10;99.90
13684;DHT22;6914;53.552;9.908;2023-04-03T05:31:41;-0.90;99.90
13684;DHT22;6914;53.552;9.908;2023-04-03T05:34:08;-0.90;99.90
13684;DHT22;6914;53.552;9.908;2023-04-03T05:36:35;0.20;99.90
13684;DHT22;6914;53.552;9.908;2023-04-03T05:39:05;-0.90;99.90
13684;DHT22;6914;53.552;9.908;2023-04-03T05:41:32;-0.90;99.90
13684;DHT22;6914;53.552;9.908;2023-04-03T05:44:02;-0.80;99.90
13684;DHT22;6914;53.552;9.908;2023-04-03T05:46:30;-1.00;99.90
13684;DHT22;6914;53.552;9.908;2023-04-03T05:48:58;-0.70;99.90
13684;DHT22;6914;53.552;9.908;2023-04-03T05:51:31;-0.70;99.90
13684;DHT22;6914;53.552;9.908;2023-04-03T05:54:03;-0.60;99.90
13684;DHT22;6914;53.552;9.908;2023-04-03T05:56:41;-0.50;99.90
13684;DHT22;6914;53.552;9.908;2023-04-03T05:59:08;-0.40;99.90
13684;DHT22;6914;53.552;9.908;2023-04-03T06:01:40;-0.30;99.90
13684;DHT22;6914;53.552;9.908;2023-04-03T06:04:09;-0.30;99.90
13684;DHT22;6914;53.552;9.908;2023-04-03T06:06:48;-0.10;99.90
13684;DHT22;6914;53.552;9.908;2023-04-03T06:09:17;0.00;99.90
13684;DHT22;6914;53.552;9.908;2023-04-03T06:11:44;0.10;99.90
13684;DHT22;6914;53.552;9.908;2023-04-03T06:14:12;0.20;99.90
13684;DHT22;6914;53.552;9.908;2023-04-03T06:16:42;0.30;99.90
13684;DHT22;6914;53.552;9.908;2023-04-03T06:19:14;0.50;99.90
13684;DHT22;6914;53.552;9.908;2023-04-03T06:21:41;0.60;99.90
13684;DHT22;6914;53.552;9.908;2023-04-03T06:24:15;0.80;99.90
13684;DHT22;6914;53.552;9.908;2023-04-03T06:26:49;0.80;99.90
13684;DHT22;6914;53.552;9.908;2023-04-03T06:29:22;0.90;99.90
13684;DHT22;6914;53.552;9.908;2023-04-03T06:31:49;1.20;99.90
13684;DHT22;6914;53.552;9.908;2023-04-03T06:34:18;1.10;99.90
13684;DHT22;6914;53.552;9.908;2023-04-03T06:36:45;1.00;99.90
13684;DHT22;6914;53.552;9.908;2023-04-03T06:39:14;1.00;99.90
13684;DHT22;6914;53.552;9.908;2023-04-03T06:41:41;1.20;99.90
13684;DHT22;6914;53.552;9.908;2023-04-03T06:44:09;1.10;99.90
13684;DHT22;6914;53.552;9.908;2023-04-03T06:46:46;1.30;99.90
13684;DHT22;6914;53.552;9.908;2023-04-03T06:49:14;2.30;99.90
13684;DHT22;6914;53.552;9.908;2023-04-03T06:51:42;1.40;99.90
13684;DHT22;6914;53.552;9.908;2023-04-03T06:54:15;1.40;99.90
13684;DHT22;6914;53.552;9.908;2023-04-03T06:56:43;1.70;99.90
13684;DHT22;6914;53.552;9.908;2023-04-03T06:59:12;1.90;99.90
13684;DHT22;6914;53.552;9.908;2023-04-03T07:01:42;2.00;99.90
13684;DHT22;6914;53.552;9.908;2023-04-03T07:04:09;2.10;99.90
13684;DHT22;6914;53.552;9.908;2023-04-03T07:06:41;2.10;99.90
13684;DHT22;6914;53.552;9.908;2023-04-03T07:09:15;2.30;99.90
13684;DHT22;6914;53.552;9.908;2023-04-03T07:11:42;2.50;99.90
13684;DHT22;6914;53.552;9.908;2023-04-03T07:14:11;2.60;99.90
13684;DHT22;6914;53.552;9.908;2023-04-03T07:16:46;2.80;99.90
13684;DHT22;6914;53.552;9.908;2023-04-03T07:19:18;2.80;99.90
13684;DHT22;6914;53.552;9.908;2023-04-03T07:21:45;2.80;99.90
13684;DHT22;6914;53.552;9.908;2023-04-03T07:24:14;3.00;99.90
13684;DHT22;6914;53.552;9.908;2023-04-03T07:29:11;3.10;99.90
13684;DHT22;6914;53.552;9.908;2023-04-03T07:31:42;3.10;99.90
13684;DHT22;6914;53.552;9.908;2023-04-03T07:34:11;3.30;99.90
13684;DHT22;6914;53.552;9.908;2023-04-03T07:36:50;3.70;99.90
13684;DHT22;6914;53.552;9.908;2023-04-03T07:39:19;3.50;99.90
13684;DHT22;6914;53.552;9.908;2023-04-03T07:41:46;3.40;99.90
13684;DHT22;6914;53.552;9.908;2023-04-03T07:44:13;3.50;99.90
13684;DHT22;6914;53.552;9.908;2023-04-03T07:46:42;3.80;99.90
13684;DHT22;6914;53.552;9.908;2023-04-03T07:49:11;4.00;99.90
13684;DHT22;6914;53.552;9.908;2023-04-03T07:51:39;3.90;99.90
13684;DHT22;6914;53.552;9.908;2023-04-03T07:54:09;4.00;99.90
13684;DHT22;6914;53.552;9.908;2023-04-03T07:56:44;3.90;99.90
13684;DHT22;6914;53.552;9.908;2023-04-03T07:59:14;4.40;99.90
13684;DHT22;6914;53.552;9.908;2023-04-03T08:01:47;4.20;99.90
13684;DHT22;6914;53.552;9.908;2023-04-03T08:04:14;4.30;99.90
13684;DHT22;6914;53.552;9.908;2023-04-03T08:06:46;4.40;99.90
13684;DHT22;6914;53.552;9.908;2023-04-03T08:09:14;4.30;99.90
13684;DHT22;6914;53.552;9.908;2023-04-03T08:11:50;4.40;99.90
13684;DHT22;6914;53.552;9.908;2023-04-03T08:14:19;4.50;99.90
13684;DHT22;6914;53.552;9.908;2023-04-03T08:16:49;4.40;99.90
13684;DHT22;6914;53.552;9.908;2023-04-03T08:19:16;4.40;99.90
13684;DHT22;6914;53.552;9.908;2023-04-03T08:21:45;4.50;99.90
13684;DHT22;6914;53.552;9.908;2023-04-03T08:24:13;4.70;99.90
13684;DHT22;6914;53.552;9.908;2023-04-03T08:26:43;4.70;99.90
13684;DHT22;6914;53.552;9.908;2023-04-03T08:29:11;4.30;99.90
13684;DHT22;6914;53.552;9.908;2023-04-03T08:31:41;4.50;99.90
13684;DHT22;6914;53.552;9.908;2023-04-03T08:34:11;4.80;99.90
13684;DHT22;6914;53.552;9.908;2023-04-03T08:36:44;5.00;99.90
13684;DHT22;6914;53.552;9.908;2023-04-03T08:39:11;6.40;99.90
13684;DHT22;6914;53.552;9.908;2023-04-03T08:41:51;5.20;99.90
13684;DHT22;6914;53.552;9.908;2023-04-03T08:44:25;5.20;99.90
13684;DHT22;6914;53.552;9.908;2023-04-03T08:47:17;5.10;99.90
13684;DHT22;6914;53.552;9.908;2023-04-03T08:49:49;5.40;99.90
13684;DHT22;6914;53.552;9.908;2023-04-03T08:52:22;5.20;99.90
13684;DHT22;6914;53.552;9.908;2023-04-03T08:54:53;5.50;99.90
13684;DHT22;6914;53.552;9.908;2023-04-03T08:57:29;6.70;99.90
13684;DHT22;6914;53.552;9.908;2023-04-03T09:00:17;5.60;99.90
13684;DHT22;6914;53.552;9.908;2023-04-03T09:02:46;5.90;99.90
13684;DHT22;6914;53.552;9.908;2023-04-03T09:05:15;5.90;99.90
13684;DHT22;6914;53.552;9.908;2023-04-03T09:07:54;6.10;97.20
13684;DHT22;6914;53.552;9.908;2023-04-03T09:10:26;6.60;83.60
13684;DHT22;6914;53.552;9.908;2023-04-03T09:13:00;6.60;73.40
13684;DHT22;6914;53.552;9.908;2023-04-03T09:15:32;6.60;89.40
13684;DHT22;6914;53.552;9.908;2023-04-03T09:18:09;6.50;95.10
13684;DHT22;6914;53.552;9.908;2023-04-03T09:20:49;8.20;77.70
13684;DHT22;6914;53.552;9.908;2023-04-03T09:23:24;8.40;72.20
13684;DHT22;6914;53.552;9.908;2023-04-03T09:26:09;9.20;67.60
13684;DHT22;6914;53.552;9.908;2023-04-03T09:28:51;9.20;63.20
13684;DHT22;6914;53.552;9.908;2023-04-03T09:31:24;10.50;65.40
13684;DHT22;6914;53.552;9.908;2023-04-03T09:33:57;10.00;64.90
13684;DHT22;6914;53.552;9.908;2023-04-03T09:36:49;10.30;61.80
13684;DHT22;6914;53.552;9.908;2023-04-03T09:39:18;10.70;59.20
13684;DHT22;6914;53.552;9.908;2023-04-03T09:41:59;10.90;59.10
13684;DHT22;6914;53.552;9.908;2023-04-03T09:44:29;10.90;58.00
13684;DHT22;6914;53.552;9.908;2023-04-03T09:47:18;11.30;55.50
13684;DHT22;6914;53.552;9.908;2023-04-03T09:49:49;11.50;56.10
13684;DHT22;6914;53.552;9.908;2023-04-03T09:52:23;11.10;55.80
13684;DHT22;6914;53.552;9.908;2023-04-03T09:54:51;10.70;53.20
13684;DHT22;6914;53.552;9.908;2023-04-03T09:57:19;11.50;54.90
13684;DHT22;6914;53.552;9.908;2023-04-03T09:59:56;10.90;52.50
13684;DHT22;6914;53.552;9.908;2023-04-03T10:02:37;11.00;53.30
13684;DHT22;6914;53.552;9.908;2023-04-03T10:05:26;11.10;51.60
13684;DHT22;6914;53.552;9.908;2023-04-03T10:08:07;11.30;48.60
13684;DHT22;6914;53.552;9.908;2023-04-03T10:10:35;12.50;50.90
13684;DHT22;6914;53.552;9.908;2023-04-03T10:13:07;12.40;50.90
13684;DHT22;6914;53.552;9.908;2023-04-03T10:15:38;12.50;47.70
13684;DHT22;6914;53.552;9.908;2023-04-03T10:18:22;12.90;47.20
13684;DHT22;6914;53.552;9.908;2023-04-03T10:20:54;14.00;48.80
13684;DHT22;6914;53.552;9.908;2023-04-03T10:23:27;13.30;46.90
13684;DHT22;6914;53.552;9.908;2023-04-03T10:26:04;12.10;45.10
13684;DHT22;6914;53.552;9.908;2023-04-03T10:28:48;10.80;45.50
13684;DHT22;6914;53.552;9.908;2023-04-03T10:31:29;10.20;47.50
13684;DHT22;6914;53.552;9.908;2023-04-03T10:34:08;10.40;49.30
13684;DHT22;6914;53.552;9.908;2023-04-03T10:36:48;11.10;51.30
13684;DHT22;6914;53.552;9.908;2023-04-03T10:39:21;11.60;49.60
13684;DHT22;6914;53.552;9.908;2023-04-03T10:42:02;12.40;48.20
13684;DHT22;6914;53.552;9.908;2023-04-03T10:44:37;12.20;47.40
13684;DHT22;6914;53.552;9.908;2023-04-03T10:47:19;12.10;46.40
13684;DHT22;6914;53.552;9.908;2023-04-03T10:49:58;12.10;46.20
13684;DHT22;6914;53.552;9.908;2023-04-03T10:52:34;12.00;46.80
13684;DHT22;6914;53.552;9.908;2023-04-03T10:55:14;11.80;47.50
13684;DHT22;6914;53.552;9.908;2023-04-03T10:57:47;13.30;49.80
13684;DHT22;6914;53.552;9.908;2023-04-03T11:00:21;13.30;47.10
13684;DHT22;6914;53.552;9.908;2023-04-03T11:02:54;14.10;45.80
13684;DHT22;6914;53.552;9.908;2023-04-03T11:05:31;14.20;44.70
13684;DHT22;6914;53.552;9.908;2023-04-03T11:08:04;14.20;43.30
13684;DHT22;6914;53.552;9.908;2023-04-03T11:10:39;14.70;43.00
13684;DHT22;6914;53.552;9.908;2023-04-03T11:13:12;14.20;43.30
13684;DHT22;6914;53.552;9.908;2023-04-03T11:15:48;14.60;44.80
13684;DHT22;6914;53.552;9.908;2023-04-03T11:18:20;14.80;43.90
13684;DHT22;6914;53.552;9.908;2023-04-03T11:20:58;15.00;43.20
13684;DHT22;6914;53.552;9.908;2023-04-03T11:23:31;15.50;42.80
13684;DHT22;6914;53.552;9.908;2023-04-03T11:26:08;15.30;44.20
13684;DHT22;6914;53.552;9.908;2023-04-03T11:28:38;14.90;43.40
13684;DHT22;6914;53.552;9.908;2023-04-03T11:31:14;13.90;43.70
13684;DHT22;6914;53.552;9.908;2023-04-03T11:34:15;14.90;43.90
13684;DHT22;6914;53.552;9.908;2023-04-03T11:36:49;14.20;43.70
13684;DHT22;6914;53.552;9.908;2023-04-03T11:39:22;13.30;44.20
13684;DHT22;6914;53.552;9.908;2023-04-03T11:41:51;12.40;45.50
13684;DHT22;6914;53.552;9.908;2023-04-03T11:47:05;12.10;46.60
13684;DHT22;6914;53.552;9.908;2023-04-03T11:49:52;11.40;46.20
13684;DHT22;6914;53.552;9.908;2023-04-03T11:52:58;10.50;46.70
13684;DHT22;6914;53.552;9.908;2023-04-03T11:55:46;10.20;48.10
13684;DHT22;6914;53.552;9.908;2023-04-03T11:58:19;9.60;51.00
13684;DHT22;6914;53.552;9.908;2023-04-03T12:01:01;9.30;52.20
13684;DHT22;6914;53.552;9.908;2023-04-03T12:04:07;10.70;52.90
13684;DHT22;6914;53.552;9.908;2023-04-03T12:07:00;12.30;49.70
13684;DHT22;6914;53.552;9.908;2023-04-03T12:09:58;14.20;48.40
13684;DHT22;6914;53.552;9.908;2023-04-03T12:12:36;14.30;46.60
13684;DHT22;6914;53.552;9.908;2023-04-03T12:18:57;12.80;44.80
13684;DHT22;6914;53.552;9.908;2023-04-03T12:24:34;13.60;46.70
13684;DHT22;6914;53.552;9.908;2023-04-03T12:27:34;13.00;46.20
13684;DHT22;6914;53.552;9.908;2023-04-03T12:30:25;12.00;45.50
13684;DHT22;6914;53.552;9.908;2023-04-03T12:33:02;13.00;48.10
13684;DHT22;6914;53.552;9.908;2023-04-03T12:35:35;13.30;47.80
13684;DHT22;6914;53.552;9.908;2023-04-03T12:38:33;13.70;46.10
13684;DHT22;6914;53.552;9.908;2023-04-03T12:41:21;13.20;45.50
13684;DHT22;6914;53.552;9.908;2023-04-03T12:44:14;13.50;46.10
13684;DHT22;6914;53.552;9.908;2023-04-03T12:46:48;13.50;46.20
13684;DHT22;6914;53.552;9.908;2023-04-03T12:49:30;13.00;45.10
13684;DHT22;6914;53.552;9.908;2023-04-03T12:52:00;11.70;45.30
13684;DHT22;6914;53.552;9.908;2023-04-03T12:54:33;11.20;47.10
13684;DHT22;6914;53.552;9.908;2023-04-03T12:57:12;10.70;47.90
13684;DHT22;6914;53.552;9.908;2023-04-03T12:59:43;10.80;48.60
13684;DHT22;6914;53.552;9.908;2023-04-03T13:02:25;11.60;49.30
13684;DHT22;6914;53.552;9.908;2023-04-03T13:04:55;10.90;47.20
13684;DHT22;6914;53.552;9.908;2023-04-03T13:07:29;11.00;48.80
13684;DHT22;6914;53.552;9.908;2023-04-03T13:10:04;11.30;49.60
13684;DHT22;6914;53.552;9.908;2023-04-03T13:12:31;10.20;48.10
13684;DHT22;6914;53.552;9.908;2023-04-03T13:15:12;9.70;50.50
13684;DHT22;6914;53.552;9.908;2023-04-03T13:17:45;9.20;49.50
13684;DHT22;6914;53.552;9.908;2023-04-03T13:20:22;9.40;50.50
13684;DHT22;6914;53.552;9.908;2023-04-03T13:22:57;9.50;50.90
13684;DHT22;6914;53.552;9.908;2023-04-03T13:25:28;10.20;49.30
13684;DHT22;6914;53.552;9.908;2023-04-03T13:27:59;10.40;48.60
13684;DHT22;6914;53.552;9.908;2023-04-03T13:30:34;10.40;47.80
13684;DHT22;6914;53.552;9.908;2023-04-03T13:33:06;10.50;47.40
13684;DHT22;6914;53.552;9.908;2023-04-03T13:35:45;10.70;47.70
13684;DHT22;6914;53.552;9.908;2023-04-03T13:38:31;10.70;47.90
13684;DHT22;6914;53.552;9.908;2023-04-03T13:41:01;10.60;47.50
13684;DHT22;6914;53.552;9.908;2023-04-03T13:43:32;10.50;47.40
13684;DHT22;6914;53.552;9.908;2023-04-03T13:48:53;10.10;48.50
13684;DHT22;6914;53.552;9.908;2023-04-03T13:51:23;9.80;48.70
13684;DHT22;6914;53.552;9.908;2023-04-03T13:53:54;9.50;48.50
13684;DHT22;6914;53.552;9.908;2023-04-03T13:56:27;8.90;48.70
13684;DHT22;6914;53.552;9.908;2023-04-03T13:59:28;9.40;51.00
13684;DHT22;6914;53.552;9.908;2023-04-03T14:02:15;9.40;49.90
13684;DHT22;6914;53.552;9.908;2023-04-03T14:04:55;9.60;49.20
13684;DHT22;6914;53.552;9.908;2023-04-03T14:07:30;9.50;49.00
13684;DHT22;6914;53.552;9.908;2023-04-03T14:09:58;9.70;49.70
13684;DHT22;6914;53.552;9.908;2023-04-03T14:12:27;9.70;49.70
13684;DHT22;6914;53.552;9.908;2023-04-03T14:14:58;9.50;49.20
13684;DHT22;6914;53.552;9.908;2023-04-03T14:17:50;9.30;49.20
13684;DHT22;6914;53.552;9.908;2023-04-03T14:20:21;9.40;49.60
13684;DHT22;6914;53.552;9.908;2023-04-03T14:22:56;9.20;49.70
13684;DHT22;6914;53.552;9.908;2023-04-03T14:25:24;9.20;49.70
13684;DHT22;6914;53.552;9.908;2023-04-03T14:27:52;9.20;49.60
13684;DHT22;6914;53.552;9.908;2023-04-03T14:30:23;9.10;49.40
13684;DHT22;6914;53.552;9.908;2023-04-03T14:32:59;8.80;49.50
13684;DHT22;6914;53.552;9.908;2023-04-03T14:35:28;8.70;49.50
13684;DHT22;6914;53.552;9.908;2023-04-03T14:37:56;8.90;50.40
13684;DHT22;6914;53.552;9.908;2023-04-03T14:40:27;8.80;50.40
13684;DHT22;6914;53.552;9.908;2023-04-03T14:42:54;9.60;50.70
13684;DHT22;6914;53.552;9.908;2023-04-03T14:45:23;8.10;49.40
13684;DHT22;6914;53.552;9.908;2023-04-03T14:47:55;8.30;49.70
13684;DHT22;6914;53.552;9.908;2023-04-03T14:50:27;8.60;50.20
13684;DHT22;6914;53.552;9.908;2023-04-03T14:52:56;8.70;50.70
13684;DHT22;6914;53.552;9.908;2023-04-03T14:55:24;8.70;49.50
13684;DHT22;6914;53.552;9.908;2023-04-03T14:57:55;8.70;49.60
13684;DHT22;6914;53.552;9.908;2023-04-03T15:00:28;8.80;50.10
13684;DHT22;6914;53.552;9.908;2023-04-03T15:02:55;8.80;51.10
13684;DHT22;6914;53.552;9.908;2023-04-03T15:05:27;8.70;52.00
13684;DHT22;6914;53.552;9.908;2023-04-03T15:07:55;8.50;53.10
13684;DHT22;6914;53.552;9.908;2023-04-03T15:10:27;8.40;52.50
13684;DHT22;6914;53.552;9.908;2023-04-03T15:12:55;8.50;52.70
13684;DHT22;6914;53.552;9.908;2023-04-03T15:15:23;8.60;53.20
13684;DHT22;6914;53.552;9.908;2023-04-03T15:17:59;8.70;52.20
13684;DHT22;6914;53.552;9.908;2023-04-03T15:20:29;8.60;52.40
13684;DHT22;6914;53.552;9.908;2023-04-03T15:22:59;8.40;51.50
13684;DHT22;6914;53.552;9.908;2023-04-03T15:25:27;8.40;52.70
13684;DHT22;6914;53.552;9.908;2023-04-03T15:27:55;8.50;52.70
13684;DHT22;6914;53.552;9.908;2023-04-03T15:30:22;8.30;52.60
13684;DHT22;6914;53.552;9.908;2023-04-03T15:32:54;8.70;54.50
13684;DHT22;6914;53.552;9.908;2023-04-03T15:35:21;8.00;54.20
13684;DHT22;6914;53.552;9.908;2023-04-03T15:37:53;8.30;54.60
13684;DHT22;6914;53.552;9.908;2023-04-03T15:40:20;8.40;54.30
13684;DHT22;6914;53.552;9.908;2023-04-03T15:42:48;8.30;54.30
13684;DHT22;6914;53.552;9.908;2023-04-03T15:45:19;9.10;56.10
13684;DHT22;6914;53.552;9.908;2023-04-03T15:47:51;8.40;54.00
13684;DHT22;6914;53.552;9.908;2023-04-03T15:50:19;8.20;55.30
13684;DHT22;6914;53.552;9.908;2023-04-03T15:52:57;6.80;54.70
13684;DHT22;6914;53.552;9.908;2023-04-03T15:55:31;8.20;56.10
13684;DHT22;6914;53.552;9.908;2023-04-03T15:57:59;8.10;55.20
13684;DHT22;6914;53.552;9.908;2023-04-03T16:00:27;8.00;55.70
13684;DHT22;6914;53.552;9.908;2023-04-03T16:02:59;7.90;56.30
13684;DHT22;6914;53.552;9.908;2023-04-03T16:05:29;7.90;56.50
13684;DHT22;6914;53.552;9.908;2023-04-03T16:07:59;8.40;57.50
13684;DHT22;6914;53.552;9.908;2023-04-03T16:10:28;7.90;56.90
13684;DHT22;6914;53.552;9.908;2023-04-03T16:12:55;7.90;56.90
13684;DHT22;6914;53.552;9.908;2023-04-03T16:15:23;8.20;56.70
13684;DHT22;6914;53.552;9.908;2023-04-03T16:17:53;8.40;57.80
13684;DHT22;6914;53.552;9.908;2023-04-03T16:20:20;7.80;57.00
13684;DHT22;6914;53.552;9.908;2023-04-03T16:22:53;7.60;56.90
13684;DHT22;6914;53.552;9.908;2023-04-03T16:25:22;6.80;57.20
13684;DHT22;6914;53.552;9.908;2023-04-03T16:27:55;7.50;56.60
13684;DHT22;6914;53.552;9.908;2023-04-03T16:30:22;7.50;56.80
13684;DHT22;6914;53.552;9.908;2023-04-03T16:32:52;7.50;57.00
13684;DHT22;6914;53.552;9.908;2023-04-03T16:35:21;7.10;57.40
13684;DHT22;6914;53.552;9.908;2023-04-03T16:37:54;7.60;57.90
13684;DHT22;6914;53.552;9.908;2023-04-03T16:40:23;7.40;58.30
13684;DHT22;6914;53.552;9.908;2023-04-03T16:42:53;7.30;58.00